CheckWX is a tool to help pilots better visualize weather data.  It is not intended as a substitute for an official pre-flight weather briefing.

14:10:55 UTC

KGWW METAR
Wayne Executive Jetport Airport
Goldsboro, North Carolina, USA
Current

46 mins ago

KGWW 261325Z AUTO 17010G14KT 10SM BKN017 BKN021 BKN110 23/20 A2970 RMK AO2 T02280198
Observed
Apr-26 @ 13:25 UTC
Wind
  • 170° at 10 KTS
  • Gusting to 14 KTS
Visibility
10 SM
Flight Rules
MVFR
Cloud Levels
  • Broken at 1,700' AGL
  • Broken at 2,100' AGL
  • Broken at 11,000' AGL
Temperature
23°C / 73°F
Dewpoint
20°C / 68°F
Humidity
83%
Altimeter
29.7" Hg
Pressure
1005.72 hPa
Previous

1 hour ago

KGWW 261305Z AUTO 19010G14KT 10SM BKN017 OVC023 22/20 A2971 RMK AO2 T02170198
Observed
Apr-26 @ 13:05 UTC
Wind
  • 190° at 10 KTS
  • Gusting to 14 KTS
Visibility
10 SM
Flight Rules
MVFR
Cloud Levels
  • Broken at 1,700' AGL
  • Overcast at 2,300' AGL
Temperature
22°C / 72°F
Dewpoint
20°C / 68°F
Humidity
88%
Altimeter
29.71" Hg
Pressure
1006.12 hPa
Previous

1 hour ago

KGWW 261245Z AUTO 19009KT 10SM BKN017 OVC023 21/20 A2972 RMK AO2 T02100196
Observed
Apr-26 @ 12:45 UTC
Wind
  • 190° at 9 KTS
Visibility
10 SM
Flight Rules
MVFR
Cloud Levels
  • Broken at 1,700' AGL
  • Overcast at 2,300' AGL
Temperature
21°C / 70°F
Dewpoint
20°C / 68°F
Humidity
94%
Altimeter
29.72" Hg
Pressure
1006.42 hPa